Terminal Aerodrome Forecast
Issued by NWS Sterling, VA

Current Version | Previous Version | Text Only | Print | Product List | Glossary Off
Versions: 1 2 3 4 5 6 7 8 9 10 11 12 13 14 15 16 17 18 19 20

000
FTUS41 KLWX 172340
TAFMRB
TAF
KMRB 172340Z 1800/1824 00000KT P6SM FEW040 SCT200
     FM180500 00000KT P6SM FEW040 SCT150
     FM180600 00000KT 3SM BR FEW040 SCT140
     FM180800 00000KT 2SM BR FEW040 SCT090
     FM180900 00000KT 1 1/2SM BR FEW010 SCT040
     FM181500 05004KT P6SM BKN020 BKN040
     FM181800 06005KT P6SM SCT040 BKN045
     FM182000 06006KT P6SM FEW040 SCT060=

USA.gov is the U.S. government's official web portal to all federal, state and local government web resources and services.